Time;durP1;ratioP1;P1;durP2;ratioP2;P2;SDS_P1;SDS_P2;PMS_P1;PMS_P2;Temp;Humidity;BMP_temperature;BMP_pressure;BME280_temperature;BME280_humidity;BME280_pressure;Samples;Min_cycle;Max_cycle;Signal;HPM_P1;HPM_P2
2022/05/21 00:02:09;;;;;;;8.80;6.10;;;;;;;;;;4972167;28;20026;-79
2022/05/21 00:04:36;;;;;;;8.93;5.97;;;;;;;;;;4990017;28;20034;-74
2022/05/21 00:07:02;;;;;;;10.02;5.97;;;;;;;;;;5001291;28;20056;-74
2022/05/21 00:09:28;;;;;;;9.23;5.93;;;;;;;;;;4992286;28;20033;-79
2022/05/21 00:11:54;;;;;;;8.73;5.72;;;;;;;;;;4984054;28;20033;-78
2022/05/21 00:14:20;;;;;;;7.28;5.55;;;;;;;;;;4997231;28;20034;-77
2022/05/21 00:16:46;;;;;;;7.72;6.10;;;;;;;;;;4999614;28;20065;-75
2022/05/21 00:19:11;;;;;;;8.13;5.50;;;;;;;;;;5005190;28;20072;-75
2022/05/21 00:21:37;;;;;;;7.85;5.38;;;;;;;;;;4981331;28;20049;-79
2022/05/21 00:24:03;;;;;;;8.95;5.82;;;;;;;;;;4998648;28;20157;-78
2022/05/21 00:26:28;;;;;;;7.82;5.45;;;;;;;;;;4995871;28;20034;-79
2022/05/21 00:28:54;;;;;;;8.93;6.10;;;;;;;;;;4997152;28;20040;-74
2022/05/21 00:31:20;;;;;;;9.93;6.68;;;;;;;;;;4994635;28;20095;-79
2022/05/21 00:33:46;;;;;;;8.70;6.20;;;;;;;;;;4992270;28;20057;-78
2022/05/21 00:36:12;;;;;;;7.90;5.60;;;;;;;;;;4997331;28;20538;-76
2022/05/21 00:38:39;;;;;;;7.85;5.53;;;;;;;;;;5004037;28;20082;-78
2022/05/21 00:41:07;;;;;;;9.95;5.57;;;;;;;;;;4980614;28;20453;-80
2022/05/21 00:43:36;;;;;;;9.30;5.15;;;;;;;;;;4992290;28;20116;-75
2022/05/21 00:46:03;;;;;;;7.28;5.40;;;;;;;;;;4990543;28;20026;-77
2022/05/21 00:48:28;;;;;;;8.55;5.47;;;;;;;;;;4985570;28;20034;-75
2022/05/21 00:50:54;;;;;;;8.90;5.80;;;;;;;;;;4997520;28;20038;-77
2022/05/21 00:53:20;;;;;;;8.32;5.72;;;;;;;;;;4997160;28;20037;-77
2022/05/21 00:55:46;;;;;;;10.48;6.13;;;;;;;;;;4998535;28;20073;-79
2022/05/21 01:01:02;;;;;;;8.40;5.20;;;;;;;;;;5004480;28;20037;-74
2022/05/21 01:03:29;;;;;;;8.15;5.30;;;;;;;;;;4990984;28;20080;-74
2022/05/21 01:05:57;;;;;;;6.95;5.05;;;;;;;;;;4990325;28;20021;-77
2022/05/21 01:08:22;;;;;;;7.55;5.13;;;;;;;;;;5001854;28;20029;-79
2022/05/21 01:10:51;;;;;;;10.90;5.40;;;;;;;;;;4999764;28;20091;-78
2022/05/21 01:13:19;;;;;;;8.88;5.47;;;;;;;;;;4999396;28;20030;-76
2022/05/21 01:15:49;;;;;;;9.57;5.68;;;;;;;;;;4979219;28;20026;-78
2022/05/21 01:18:15;;;;;;;10.02;6.05;;;;;;;;;;4993222;28;20079;-79
2022/05/21 01:20:44;;;;;;;7.93;5.38;;;;;;;;;;4994775;28;20025;-79
2022/05/21 01:23:10;;;;;;;8.90;5.15;;;;;;;;;;4998181;28;20486;-74
2022/05/21 01:25:38;;;;;;;9.75;5.57;;;;;;;;;;4996208;28;20084;-74
2022/05/21 01:28:06;;;;;;;9.07;5.40;;;;;;;;;;5004838;28;20036;-77
2022/05/21 01:30:39;;;;;;;8.68;6.13;;;;;;;;;;4994530;28;20034;-74
2022/05/21 01:33:05;;;;;;;;;;;;;;;;;;4998453;28;20057;-77
2022/05/21 01:35:32;;;;;;;8.15;4.80;;;;;;;;;;4989938;28;20388;-74
2022/05/21 01:37:58;;;;;;;9.45;5.40;;;;;;;;;;4999191;28;20095;-77
2022/05/21 01:40:24;;;;;;;9.25;5.65;;;;;;;;;;4994798;28;20569;-74
2022/05/21 01:44:37;;;;;;;9.40;5.30;;;;;;;;;;5005379;28;20044;-74
2022/05/21 01:45:35;;;;;;;7.10;4.88;;;;;;;;;;4981627;28;20117;-75
2022/05/21 01:48:02;;;;;;;9.30;5.60;;;;;;;;;;4983271;28;20049;-79
2022/05/21 01:50:29;;;;;;;9.68;5.03;;;;;;;;;;4980679;28;20037;-79
2022/05/21 01:52:54;;;;;;;9.52;5.07;;;;;;;;;;4992818;28;20056;-78
2022/05/21 01:55:20;;;;;;;10.57;5.20;;;;;;;;;;5001733;28;20421;-79
2022/05/21 01:57:45;;;;;;;7.25;5.28;;;;;;;;;;4975593;28;20387;-77
2022/05/21 02:00:12;;;;;;;8.65;5.22;;;;;;;;;;4995250;28;20117;-75
2022/05/21 02:02:37;;;;;;;7.70;4.90;;;;;;;;;;4992216;28;20109;-73
2022/05/21 02:05:03;;;;;;;9.60;5.20;;;;;;;;;;4989432;28;20087;-77
2022/05/21 02:07:28;;;;;;;11.00;5.47;;;;;;;;;;4980999;28;20038;-73
2022/05/21 02:09:53;;;;;;;7.47;5.38;;;;;;;;;;4993128;28;20121;-72
2022/05/21 02:12:19;;;;;;;8.93;5.88;;;;;;;;;;4991923;28;20480;-79
2022/05/21 02:14:45;;;;;;;11.35;5.68;;;;;;;;;;4991822;28;20056;-76
2022/05/21 02:17:10;;;;;;;10.38;5.40;;;;;;;;;;4993595;28;20026;-75
2022/05/21 02:19:35;;;;;;;10.13;5.50;;;;;;;;;;4997282;28;21644;-76
2022/05/21 02:22:00;;;;;;;11.98;6.35;;;;;;;;;;4979496;28;20022;-74
2022/05/21 02:24:26;;;;;;;11.45;5.93;;;;;;;;;;4985437;28;20036;-79
2022/05/21 02:26:51;;;;;;;8.88;5.30;;;;;;;;;;4991269;28;20147;-77
2022/05/21 02:29:18;;;;;;;11.63;5.30;;;;;;;;;;4995160;28;20072;-76
2022/05/21 02:31:44;;;;;;;9.50;5.30;;;;;;;;;;4982691;28;20050;-75
2022/05/21 02:34:09;;;;;;;8.43;5.32;;;;;;;;;;4975424;28;20267;-76
2022/05/21 02:39:30;;;;;;;10.18;5.20;;;;;;;;;;4979525;28;20158;-79
2022/05/21 02:41:58;;;;;;;8.00;5.32;;;;;;;;;;4975381;28;20061;-75
2022/05/21 02:44:24;;;;;;;9.75;5.72;;;;;;;;;;4969259;28;20629;-78
2022/05/21 02:46:49;;;;;;;9.48;5.25;;;;;;;;;;4989533;28;20039;-79
2022/05/21 02:49:15;;;;;;;8.80;5.20;;;;;;;;;;4970382;28;20031;-75
2022/05/21 02:51:40;;;;;;;11.07;5.30;;;;;;;;;;4988995;28;20042;-73
2022/05/21 02:54:06;;;;;;;10.23;5.45;;;;;;;;;;4999504;28;20394;-75
2022/05/21 02:56:33;;;;;;;8.43;5.30;;;;;;;;;;4980411;28;20117;-78
2022/05/21 02:58:58;;;;;;;9.65;5.53;;;;;;;;;;4982900;28;20034;-77
2022/05/21 03:01:24;;;;;;;12.93;5.75;;;;;;;;;;4985571;28;20073;-74
2022/05/21 03:03:49;;;;;;;9.90;5.93;;;;;;;;;;4986661;28;20030;-79
2022/05/21 03:06:15;;;;;;;10.75;5.93;;;;;;;;;;4982807;28;20401;-79
2022/05/21 03:11:24;;;;;;;9.85;5.63;;;;;;;;;;4982664;28;20085;-76
2022/05/21 03:13:49;;;;;;;14.63;5.82;;;;;;;;;;4986338;28;20034;-80
2022/05/21 03:16:15;;;;;;;10.80;5.68;;;;;;;;;;4983524;28;20035;-75
2022/05/21 03:18:40;;;;;;;9.88;5.57;;;;;;;;;;4983626;28;20034;-75
2022/05/21 03:21:05;;;;;;;9.48;5.45;;;;;;;;;;4984940;28;20124;-79
2022/05/21 03:23:31;;;;;;;11.10;5.70;;;;;;;;;;4975181;28;20030;-79
2022/05/21 03:25:56;;;;;;;11.27;5.38;;;;;;;;;;4985323;28;20113;-79
2022/05/21 03:28:21;;;;;;;9.45;5.50;;;;;;;;;;4995652;28;20081;-77
2022/05/21 03:30:48;;;;;;;10.75;5.20;;;;;;;;;;4982165;28;20034;-80
2022/05/21 03:33:13;;;;;;;10.65;5.38;;;;;;;;;;4988754;28;20044;-79
2022/05/21 03:35:41;;;;;;;11.82;6.20;;;;;;;;;;4981073;28;20129;-79
2022/05/21 03:38:08;;;;;;;11.88;5.53;;;;;;;;;;4985433;28;20029;-74
2022/05/21 03:40:33;;;;;;;11.48;6.10;;;;;;;;;;4982776;28;20118;-79
2022/05/21 03:42:59;;;;;;;11.05;5.95;;;;;;;;;;4982169;28;20129;-75
2022/05/21 03:45:25;;;;;;;11.25;5.57;;;;;;;;;;4977009;28;20085;-74
2022/05/21 03:47:51;;;;;;;11.15;5.25;;;;;;;;;;4977152;28;20030;-73
2022/05/21 03:50:21;;;;;;;8.88;5.47;;;;;;;;;;4977872;28;20084;-79
2022/05/21 03:52:46;;;;;;;12.70;6.05;;;;;;;;;;4977131;28;20031;-77
2022/05/21 03:55:12;;;;;;;10.60;5.95;;;;;;;;;;4982153;28;20394;-80
2022/05/21 03:57:40;;;;;;;11.05;5.47;;;;;;;;;;4973058;28;20041;-79
2022/05/21 04:00:10;;;;;;;12.23;5.30;;;;;;;;;;4981507;28;20057;-74
2022/05/21 04:02:36;;;;;;;12.38;5.82;;;;;;;;;;4993469;28;20030;-79
2022/05/21 04:05:06;;;;;;;11.90;6.00;;;;;;;;;;4979271;28;20037;-78
2022/05/21 04:07:32;;;;;;;12.38;5.30;;;;;;;;;;4975552;28;21623;-74
2022/05/21 04:09:57;;;;;;;9.20;5.70;;;;;;;;;;4977812;28;20032;-79
2022/05/21 04:12:23;;;;;;;11.52;5.85;;;;;;;;;;4978466;28;20069;-78
2022/05/21 04:14:48;;;;;;;13.93;6.18;;;;;;;;;;4981224;28;20504;-74
2022/05/21 04:17:13;;;;;;;11.63;5.63;;;;;;;;;;4981904;28;20037;-75
2022/05/21 04:19:40;;;;;;;9.25;5.40;;;;;;;;;;4983593;28;20030;-79
2022/05/21 04:22:05;;;;;;;9.90;5.80;;;;;;;;;;4983148;28;20410;-79
2022/05/21 04:24:31;;;;;;;14.00;6.07;;;;;;;;;;4982865;28;20034;-77
2022/05/21 04:26:56;;;;;;;11.75;5.55;;;;;;;;;;4980440;28;20057;-78
2022/05/21 04:29:21;;;;;;;12.95;6.07;;;;;;;;;;4979179;28;20077;-74
2022/05/21 04:31:47;;;;;;;11.93;5.57;;;;;;;;;;4985141;28;20026;-80
2022/05/21 04:34:13;;;;;;;12.15;5.68;;;;;;;;;;4982163;28;20050;-79
2022/05/21 04:36:39;;;;;;;10.63;5.35;;;;;;;;;;4985204;28;20038;-79
2022/05/21 04:39:04;;;;;;;11.75;5.47;;;;;;;;;;4981333;28;20429;-78
2022/05/21 04:41:30;;;;;;;11.63;5.35;;;;;;;;;;4981778;28;20026;-75
2022/05/21 04:43:55;;;;;;;11.00;4.97;;;;;;;;;;4977445;28;20528;-75
2022/05/21 04:46:22;;;;;;;9.82;5.45;;;;;;;;;;4978992;28;20085;-74
2022/05/21 04:48:48;;;;;;;9.20;4.43;;;;;;;;;;4983117;28;20034;-79
2022/05/21 04:51:14;;;;;;;7.88;4.13;;;;;;;;;;4982069;28;20042;-79
2022/05/21 04:53:40;;;;;;;10.43;4.32;;;;;;;;;;4977377;28;20030;-74
2022/05/21 04:56:06;;;;;;;9.73;4.35;;;;;;;;;;4978777;28;21790;-79
2022/05/21 04:58:32;;;;;;;9.70;4.25;;;;;;;;;;4980195;28;20441;-74
2022/05/21 05:00:58;;;;;;;11.57;4.57;;;;;;;;;;4982011;28;20026;-78
2022/05/21 05:03:24;;;;;;;11.52;4.68;;;;;;;;;;4997120;28;20029;-78
2022/05/21 05:05:50;;;;;;;7.35;3.83;;;;;;;;;;4982801;28;20111;-74
2022/05/21 05:08:17;;;;;;;12.73;4.72;;;;;;;;;;4981455;28;20037;-79
2022/05/21 05:10:43;;;;;;;6.97;3.88;;;;;;;;;;4980611;28;20068;-77
2022/05/21 05:13:10;;;;;;;8.57;3.88;;;;;;;;;;4981382;28;20022;-75
2022/05/21 05:15:36;;;;;;;9.45;3.78;;;;;;;;;;4975489;28;20121;-79
2022/05/21 05:18:12;;;;;;;8.45;3.50;;;;;;;;;;4981578;28;20030;-79
2022/05/21 05:20:41;;;;;;;10.70;3.45;;;;;;;;;;4979368;28;20037;-78
2022/05/21 05:23:07;;;;;;;12.55;3.70;;;;;;;;;;4982582;28;20387;-80
2022/05/21 05:25:33;;;;;;;7.13;3.35;;;;;;;;;;4985607;28;20034;-79
2022/05/21 05:27:58;;;;;;;8.27;3.70;;;;;;;;;;5000090;28;20038;-77
2022/05/21 05:30:24;;;;;;;12.77;3.90;;;;;;;;;;4975790;28;20177;-77
2022/05/21 05:32:50;;;;;;;11.13;3.40;;;;;;;;;;4990207;28;20100;-74
2022/05/21 05:35:16;;;;;;;8.98;3.53;;;;;;;;;;5000548;28;20410;-74
2022/05/21 05:37:42;;;;;;;8.88;3.60;;;;;;;;;;5002347;28;20402;-73
2022/05/21 05:40:11;;;;;;;11.32;3.60;;;;;;;;;;4999473;28;20084;-79
2022/05/21 05:42:38;;;;;;;9.25;3.78;;;;;;;;;;5000380;28;20033;-74
2022/05/21 05:45:05;;;;;;;7.25;3.05;;;;;;;;;;5002129;28;20032;-77
2022/05/21 05:47:33;;;;;;;12.82;3.80;;;;;;;;;;5001161;28;20117;-77
2022/05/21 05:49:59;;;;;;;10.77;3.75;;;;;;;;;;4978242;28;20034;-74
2022/05/21 05:52:24;;;;;;;7.45;3.13;;;;;;;;;;5000191;28;20045;-78
2022/05/21 05:54:50;;;;;;;7.90;3.20;;;;;;;;;;5001542;28;21109;-74
2022/05/21 05:57:15;;;;;;;10.68;3.15;;;;;;;;;;4993235;28;20052;-78
2022/05/21 05:59:50;;;;;;;13.30;3.63;;;;;;;;;;4984850;28;20157;-75
2022/05/21 06:05:00;;;;;;;10.18;3.60;;;;;;;;;;5000937;28;20100;-76
2022/05/21 06:07:26;;;;;;;7.88;3.45;;;;;;;;;;4983206;28;20029;-79
2022/05/21 06:09:51;;;;;;;8.75;3.22;;;;;;;;;;5001431;28;20033;-78
2022/05/21 06:12:17;;;;;;;9.13;3.10;;;;;;;;;;5000512;28;20040;-79
2022/05/21 06:14:42;;;;;;;10.75;3.95;;;;;;;;;;5002831;28;20033;-80
2022/05/21 06:17:09;;;;;;;10.07;3.05;;;;;;;;;;4995762;28;20038;-75
2022/05/21 06:19:34;;;;;;;9.30;3.72;;;;;;;;;;5003321;28;20072;-75
2022/05/21 06:22:02;;;;;;;9.05;3.97;;;;;;;;;;4986159;28;20037;-75
2022/05/21 06:24:28;;;;;;;18.25;3.78;;;;;;;;;;5001171;28;20119;-79
2022/05/21 06:26:53;;;;;;;10.93;3.60;;;;;;;;;;4999437;28;20528;-76
2022/05/21 06:29:18;;;;;;;9.48;3.95;;;;;;;;;;4991003;28;20065;-79
2022/05/21 06:31:44;;;;;;;8.32;3.50;;;;;;;;;;4993469;28;20478;-74
2022/05/21 06:34:10;;;;;;;9.23;3.80;;;;;;;;;;4997541;28;20076;-74
2022/05/21 06:36:35;;;;;;;11.68;4.20;;;;;;;;;;4987649;28;20068;-75
2022/05/21 06:39:01;;;;;;;10.40;4.28;;;;;;;;;;4982584;28;20030;-79
2022/05/21 06:41:29;;;;;;;10.85;3.83;;;;;;;;;;4993925;28;20581;-74
2022/05/21 06:43:55;;;;;;;13.65;4.03;;;;;;;;;;4982218;28;20022;-79
2022/05/21 06:46:20;;;;;;;10.63;3.17;;;;;;;;;;4999280;28;20044;-75
2022/05/21 06:48:46;;;;;;;14.50;4.00;;;;;;;;;;5000803;28;20080;-74
2022/05/21 06:51:11;;;;;;;11.43;4.10;;;;;;;;;;4998656;28;20034;-78
2022/05/21 06:53:37;;;;;;;10.65;4.15;;;;;;;;;;5001751;28;20145;-79
2022/05/21 06:56:08;;;;;;;11.95;3.92;;;;;;;;;;5002281;28;20607;-75
2022/05/21 06:58:34;;;;;;;10.48;3.75;;;;;;;;;;5005461;28;20026;-79
2022/05/21 07:00:59;;;;;;;9.13;3.72;;;;;;;;;;4997998;28;20021;-76
2022/05/21 07:03:24;;;;;;;10.00;4.15;;;;;;;;;;4985339;28;22355;-77
2022/05/21 07:08:33;;;;;;;11.13;3.72;;;;;;;;;;5004241;28;20441;-74
2022/05/21 07:10:59;;;;;;;11.20;3.60;;;;;;;;;;5004530;28;20053;-75
2022/05/21 07:13:25;;;;;;;8.95;4.15;;;;;;;;;;5003163;28;20052;-75
2022/05/21 07:15:53;;;;;;;10.73;4.32;;;;;;;;;;5004619;28;20033;-77
2022/05/21 07:18:27;;;;;;;9.95;3.70;;;;;;;;;;4987203;28;20052;-74
2022/05/21 07:20:53;;;;;;;9.32;3.58;;;;;;;;;;5001150;28;20029;-76
2022/05/21 07:23:20;;;;;;;11.15;3.97;;;;;;;;;;5004623;28;20045;-74
2022/05/21 07:25:47;;;;;;;10.63;3.70;;;;;;;;;;5002522;28;20029;-74
2022/05/21 07:28:12;;;;;;;8.60;3.92;;;;;;;;;;5003425;28;20052;-75
2022/05/21 07:30:38;;;;;;;10.20;4.00;;;;;;;;;;5000678;28;20050;-75
2022/05/21 07:33:04;;;;;;;12.60;4.25;;;;;;;;;;4993744;28;20045;-74
2022/05/21 07:35:30;;;;;;;9.93;4.03;;;;;;;;;;4987830;28;20116;-79
2022/05/21 07:37:55;;;;;;;10.93;4.30;;;;;;;;;;5006234;28;20117;-78
2022/05/21 07:40:24;;;;;;;11.40;3.75;;;;;;;;;;5003704;28;20030;-80
2022/05/21 07:42:50;;;;;;;6.80;3.30;;;;;;;;;;4990317;28;20030;-74
2022/05/21 07:45:17;;;;;;;8.98;3.78;;;;;;;;;;5001666;28;20033;-75
2022/05/21 07:47:42;;;;;;;8.10;2.97;;;;;;;;;;5001164;28;20034;-75
2022/05/21 07:50:08;;;;;;;9.18;3.78;;;;;;;;;;4995005;28;20037;-75
2022/05/21 07:52:34;;;;;;;8.57;3.67;;;;;;;;;;5000141;28;20030;-79
2022/05/21 07:54:59;;;;;;;9.85;3.70;;;;;;;;;;5004379;28;20106;-78
2022/05/21 07:57:24;;;;;;;7.97;3.67;;;;;;;;;;5000346;28;20033;-80
2022/05/21 07:59:50;;;;;;;10.00;3.83;;;;;;;;;;4998655;28;20922;-78
2022/05/21 08:02:17;;;;;;;10.05;4.13;;;;;;;;;;4999421;28;20080;-75
2022/05/21 08:04:43;;;;;;;12.20;3.90;;;;;;;;;;5003141;28;20084;-74
2022/05/21 08:07:09;;;;;;;10.57;3.75;;;;;;;;;;4997346;28;20049;-81
2022/05/21 08:09:35;;;;;;;9.63;3.28;;;;;;;;;;5000409;28;20038;-80
2022/05/21 08:12:01;;;;;;;9.65;3.65;;;;;;;;;;4999684;28;20033;-80
2022/05/21 08:14:26;;;;;;;7.32;3.47;;;;;;;;;;5010369;28;20036;-74
2022/05/21 08:16:52;;;;;;;11.48;3.78;;;;;;;;;;5002858;28;20393;-75
2022/05/21 08:19:18;;;;;;;10.60;3.85;;;;;;;;;;5000478;28;20034;-76
2022/05/21 08:21:43;;;;;;;8.13;3.08;;;;;;;;;;4987785;28;20014;-75
2022/05/21 08:26:56;;;;;;;8.57;2.90;;;;;;;;;;5002837;28;20087;-75
2022/05/21 08:29:29;;;;;;;8.02;3.30;;;;;;;;;;5002859;28;20095;-80
2022/05/21 08:31:54;;;;;;;10.48;3.67;;;;;;;;;;4985465;28;20041;-79
2022/05/21 08:34:25;;;;;;;8.15;4.32;;;;;;;;;;4986303;28;20435;-79
2022/05/21 08:36:50;;;;;;;12.23;3.90;;;;;;;;;;4985784;28;20438;-81
2022/05/21 08:39:19;;;;;;;9.32;2.80;;;;;;;;;;4985336;28;20037;-79
2022/05/21 08:41:48;;;;;;;12.88;2.80;;;;;;;;;;4999881;28;20466;-76
2022/05/21 08:44:29;;;;;;;12.38;2.20;;;;;;;;;;4999875;28;20113;-76
2022/05/21 08:47:20;;;;;;;4.93;2.08;;;;;;;;;;4982285;28;20449;-80
2022/05/21 08:50:16;;;;;;;6.32;2.25;;;;;;;;;;4985737;28;20029;-79
2022/05/21 08:52:58;;;;;;;11.45;2.90;;;;;;;;;;4980558;28;20534;-77
2022/05/21 08:55:42;;;;;;;5.57;2.20;;;;;;;;;;5001125;28;20046;-80
2022/05/21 08:58:26;;;;;;;;;;;;;;;;;;4981480;28;20030;-79
2022/05/21 09:00:53;;;;;;;6.03;2.72;;;;;;;;;;5004510;28;19996;-79
2022/05/21 09:03:21;;;;;;;9.77;2.97;;;;;;;;;;4982183;28;20075;-80
2022/05/21 09:06:12;;;;;;;8.48;2.67;;;;;;;;;;4997686;28;20034;-76
2022/05/21 09:09:01;;;;;;;7.82;2.85;;;;;;;;;;4998241;28;20039;-80
2022/05/21 09:11:53;;;;;;;6.88;2.58;;;;;;;;;;5000494;28;20030;-79
2022/05/21 09:14:30;;;;;;;7.13;1.90;;;;;;;;;;4986784;28;20053;-74
2022/05/21 09:16:56;;;;;;;5.80;2.47;;;;;;;;;;5000038;28;20032;-75
2022/05/21 09:19:37;;;;;;;8.50;2.03;;;;;;;;;;4995303;28;20030;-79
2022/05/21 09:22:05;;;;;;;7.25;2.03;;;;;;;;;;4997924;28;20481;-76
2022/05/21 09:24:34;;;;;;;5.68;1.90;;;;;;;;;;5000189;28;20041;-79
2022/05/21 09:27:01;;;;;;;6.00;2.05;;;;;;;;;;4997805;28;20045;-76
2022/05/21 09:29:31;;;;;;;4.43;1.73;;;;;;;;;;5000035;28;20075;-74
2022/05/21 09:31:57;;;;;;;8.52;1.88;;;;;;;;;;4987138;28;20049;-77
2022/05/21 09:34:34;;;;;;;8.05;2.45;;;;;;;;;;4998825;28;20763;-79
2022/05/21 09:37:01;;;;;;;5.78;1.90;;;;;;;;;;4994721;28;20050;-76
2022/05/21 09:39:38;;;;;;;5.40;2.00;;;;;;;;;;4980460;28;20633;-75
2022/05/21 09:45:25;;;;;;;5.90;1.88;;;;;;;;;;5001402;28;20040;-80
2022/05/21 09:47:53;;;;;;;5.05;1.92;;;;;;;;;;4987794;28;20041;-80
2022/05/21 09:50:26;;;;;;;6.80;1.95;;;;;;;;;;5001914;28;20063;-80
2022/05/21 09:52:51;;;;;;;;;;;;;;;;;;4995668;28;21035;-80
2022/05/21 09:55:29;;;;;;;6.00;1.83;;;;;;;;;;5002325;28;19921;-79
2022/05/21 09:58:06;;;;;;;6.38;1.85;;;;;;;;;;4991433;28;20022;-79
2022/05/21 10:00:33;;;;;;;5.53;1.80;;;;;;;;;;5005596;28;20047;-79
2022/05/21 10:03:02;;;;;;;7.53;2.40;;;;;;;;;;5012908;28;20037;-80
2022/05/21 10:05:35;;;;;;;5.90;1.85;;;;;;;;;;5012830;28;20064;-79
2022/05/21 10:11:20;;;;;;;6.53;1.80;;;;;;;;;;5006426;28;20040;-76
2022/05/21 10:13:54;;;;;;;5.32;1.73;;;;;;;;;;5003761;28;20117;-78
2022/05/21 10:16:48;;;;;;;6.00;1.60;;;;;;;;;;5002625;28;20465;-79
2022/05/21 10:19:40;;;;;;;6.30;1.83;;;;;;;;;;4997430;28;20047;-75
2022/05/21 10:22:14;;;;;;;9.43;2.13;;;;;;;;;;5002174;28;20030;-75
2022/05/21 10:24:51;;;;;;;8.65;2.22;;;;;;;;;;5006273;28;20026;-75
2022/05/21 10:27:29;;;;;;;5.05;1.85;;;;;;;;;;5001427;28;20045;-76
2022/05/21 10:30:06;;;;;;;8.60;2.20;;;;;;;;;;5006039;28;20034;-79
2022/05/21 10:32:39;;;;;;;7.68;2.33;;;;;;;;;;5002643;28;20096;-75
2022/05/21 10:35:17;;;;;;;6.72;2.17;;;;;;;;;;5002105;28;20112;-79
2022/05/21 10:38:20;;;;;;;7.38;2.58;;;;;;;;;;5001715;28;20026;-77
2022/05/21 10:40:50;;;;;;;7.65;2.33;;;;;;;;;;4993804;28;20081;-75
2022/05/21 10:43:34;;;;;;;6.15;1.85;;;;;;;;;;4986208;28;20038;-75
2022/05/21 10:46:09;;;;;;;4.47;1.92;;;;;;;;;;4986411;28;20172;-79
2022/05/21 10:48:55;;;;;;;8.75;1.80;;;;;;;;;;5006525;28;20034;-79
2022/05/21 10:51:30;;;;;;;6.30;2.28;;;;;;;;;;5005451;28;20033;-78
2022/05/21 10:54:02;;;;;;;6.15;2.45;;;;;;;;;;5004987;28;20096;-77
2022/05/21 10:56:49;;;;;;;7.65;2.00;;;;;;;;;;4981926;28;20025;-76
2022/05/21 10:59:28;;;;;;;7.05;1.70;;;;;;;;;;4998854;28;20030;-78
2022/05/21 11:02:06;;;;;;;5.78;2.03;;;;;;;;;;5000748;28;20076;-77
2022/05/21 11:04:43;;;;;;;6.03;1.70;;;;;;;;;;4989760;28;20029;-76
2022/05/21 11:07:15;;;;;;;5.53;1.55;;;;;;;;;;5001940;28;20060;-76
2022/05/21 11:09:48;;;;;;;7.53;2.15;;;;;;;;;;4997227;28;20038;-80
2022/05/21 11:12:18;;;;;;;5.20;2.30;;;;;;;;;;4995122;28;20470;-78
2022/05/21 11:15:06;;;;;;;6.82;2.65;;;;;;;;;;4985990;28;20041;-75
2022/05/21 11:17:50;;;;;;;7.13;2.80;;;;;;;;;;4976799;28;20140;-75
2022/05/21 11:20:29;;;;;;;7.35;1.98;;;;;;;;;;5000580;28;20038;-74
2022/05/21 11:23:13;;;;;;;7.30;2.00;;;;;;;;;;5008561;28;20394;-79
2022/05/21 11:26:09;;;;;;;6.13;1.73;;;;;;;;;;5002648;28;20025;-74
2022/05/21 11:28:51;;;;;;;4.50;1.42;;;;;;;;;;4987078;28;20029;-76
2022/05/21 11:39:44;;;;;;;7.43;2.10;;;;;;;;;;4995910;28;20040;-79
2022/05/21 11:42:14;;;;;;;10.60;2.03;;;;;;;;;;5002227;28;20022;-80
2022/05/21 11:44:56;;;;;;;5.88;1.80;;;;;;;;;;4982417;28;20033;-77
2022/05/21 11:47:21;;;;;;;5.32;1.92;;;;;;;;;;4986410;28;20034;-78
2022/05/21 11:49:55;;;;;;;5.43;1.80;;;;;;;;;;5000018;28;20040;-76
2022/05/21 11:52:26;;;;;;;4.55;2.00;;;;;;;;;;5005347;28;20064;-77
2022/05/21 11:54:54;;;;;;;5.43;1.67;;;;;;;;;;5004723;28;20505;-78
2022/05/21 11:57:29;;;;;;;8.25;2.50;;;;;;;;;;4983084;28;20085;-78
2022/05/21 11:59:54;;;;;;;6.25;2.05;;;;;;;;;;4993064;28;20148;-78
2022/05/21 12:02:29;;;;;;;6.82;2.20;;;;;;;;;;4997316;28;20130;-77
2022/05/21 12:05:05;;;;;;;9.52;2.30;;;;;;;;;;5002247;28;20053;-75
2022/05/21 12:07:49;;;;;;;8.63;2.55;;;;;;;;;;4996255;28;20036;-75
2022/05/21 12:10:25;;;;;;;6.13;2.80;;;;;;;;;;4996131;28;20113;-75
2022/05/21 12:13:06;;;;;;;5.70;2.50;;;;;;;;;;4990735;28;20041;-79
2022/05/21 12:15:46;;;;;;;6.93;2.15;;;;;;;;;;4989170;28;20378;-74
2022/05/21 12:18:33;;;;;;;5.93;2.30;;;;;;;;;;5000445;28;20021;-75
2022/05/21 12:20:59;;;;;;;9.02;3.00;;;;;;;;;;4987214;28;20377;-75
2022/05/21 12:23:31;;;;;;;6.03;2.85;;;;;;;;;;4999614;28;20025;-78
2022/05/21 12:25:58;;;;;;;6.53;2.10;;;;;;;;;;4985558;28;20482;-78
2022/05/21 12:28:31;;;;;;;6.00;2.35;;;;;;;;;;4998378;28;20053;-78
2022/05/21 12:31:00;;;;;;;;;;;;;;;;;;4999956;28;20033;-78
2022/05/21 12:33:35;;;;;;;6.70;2.33;;;;;;;;;;4993935;28;20024;-75
2022/05/21 12:36:18;;;;;;;6.97;2.60;;;;;;;;;;4997339;28;20029;-75
2022/05/21 12:38:46;;;;;;;6.97;2.25;;;;;;;;;;4985733;28;20033;-75
2022/05/21 12:41:39;;;;;;;6.43;2.30;;;;;;;;;;4999543;28;20156;-78
2022/05/21 12:44:05;;;;;;;5.80;2.15;;;;;;;;;;4996469;28;20045;-79
2022/05/21 12:46:35;;;;;;;5.97;2.20;;;;;;;;;;4992957;28;20030;-78
2022/05/21 12:49:07;;;;;;;4.88;2.13;;;;;;;;;;4998842;28;20474;-79
2022/05/21 12:51:40;;;;;;;6.72;1.80;;;;;;;;;;5010979;28;20017;-76
2022/05/21 12:54:18;;;;;;;5.25;1.83;;;;;;;;;;5010231;28;20412;-75
2022/05/21 12:56:43;;;;;;;6.38;1.33;;;;;;;;;;5008179;28;20057;-74
2022/05/21 12:59:15;;;;;;;3.20;1.40;;;;;;;;;;5009526;28;20121;-74
2022/05/21 13:02:08;;;;;;;5.70;1.73;;;;;;;;;;5011768;28;20025;-75
2022/05/21 13:04:38;;;;;;;5.50;1.70;;;;;;;;;;5007615;28;20079;-79
2022/05/21 13:07:15;;;;;;;6.78;1.50;;;;;;;;;;5008145;28;20025;-80
2022/05/21 13:09:57;;;;;;;7.72;1.90;;;;;;;;;;5011981;28;20108;-74
2022/05/21 13:12:23;;;;;;;6.18;2.00;;;;;;;;;;5011577;28;20025;-79
2022/05/21 13:14:49;;;;;;;5.20;2.33;;;;;;;;;;5011052;28;20382;-74
2022/05/21 13:17:37;;;;;;;6.35;1.92;;;;;;;;;;5010517;28;20075;-74
2022/05/21 13:20:25;;;;;;;6.88;1.75;;;;;;;;;;5009693;28;20026;-74
2022/05/21 13:23:17;;;;;;;5.60;1.73;;;;;;;;;;5013873;28;20079;-80
2022/05/21 13:25:42;;;;;;;6.63;1.80;;;;;;;;;;5007459;28;20041;-79
2022/05/21 13:28:17;;;;;;;4.10;1.70;;;;;;;;;;5012779;28;20040;-75
2022/05/21 13:30:51;;;;;;;5.70;1.65;;;;;;;;;;4999647;28;20053;-74
2022/05/21 13:33:36;;;;;;;4.35;0.98;;;;;;;;;;5008882;28;20050;-79
2022/05/21 13:36:13;;;;;;;4.75;2.03;;;;;;;;;;5011558;28;20485;-75
2022/05/21 13:38:40;;;;;;;5.80;1.52;;;;;;;;;;5004303;28;20496;-79
2022/05/21 13:41:10;;;;;;;4.68;1.23;;;;;;;;;;5011313;28;20021;-75
2022/05/21 13:43:47;;;;;;;4.30;1.60;;;;;;;;;;4988551;28;20453;-74
2022/05/21 13:46:20;;;;;;;5.63;2.30;;;;;;;;;;4991107;28;20025;-79
2022/05/21 13:48:51;;;;;;;5.10;1.90;;;;;;;;;;4993260;28;20029;-73
2022/05/21 13:51:19;;;;;;;4.85;1.80;;;;;;;;;;4998536;28;20025;-79
2022/05/21 13:53:50;;;;;;;5.70;1.90;;;;;;;;;;4992514;28;20381;-78
2022/05/21 13:56:33;;;;;;;4.90;1.70;;;;;;;;;;5009986;28;20022;-78
2022/05/21 13:59:04;;;;;;;;;;;;;;;;;;5006732;28;20054;-74
2022/05/21 14:01:33;;;;;;;4.95;1.67;;;;;;;;;;5010591;28;20391;-78
2022/05/21 14:04:35;;;;;;;6.15;1.80;;;;;;;;;;5007066;28;20779;-80
2022/05/21 14:07:02;;;;;;;5.45;2.15;;;;;;;;;;5000303;28;20045;-74
2022/05/21 14:09:30;;;;;;;5.72;1.65;;;;;;;;;;5013690;28;20347;-73
2022/05/21 14:12:01;;;;;;;3.85;2.10;;;;;;;;;;5006682;28;20022;-79
2022/05/21 14:14:32;;;;;;;5.95;1.77;;;;;;;;;;4993920;28;20073;-73
2022/05/21 14:17:11;;;;;;;4.05;1.50;;;;;;;;;;5005515;28;20034;-74
2022/05/21 14:19:37;;;;;;;5.88;1.55;;;;;;;;;;5011848;28;20029;-78
2022/05/21 14:22:15;;;;;;;5.30;1.35;;;;;;;;;;5007783;28;20021;-73
2022/05/21 14:24:50;;;;;;;3.95;1.33;;;;;;;;;;5005819;28;20022;-78
2022/05/21 14:27:15;;;;;;;5.05;1.58;;;;;;;;;;5007859;28;20030;-79
2022/05/21 14:30:01;;;;;;;4.43;1.30;;;;;;;;;;5010238;28;20064;-73
2022/05/21 14:32:38;;;;;;;5.18;1.40;;;;;;;;;;5007880;28;20045;-78
2022/05/21 14:35:21;;;;;;;5.78;1.40;;;;;;;;;;5008485;28;20109;-78
2022/05/21 14:37:58;;;;;;;4.30;1.52;;;;;;;;;;5015925;28;20056;-74
2022/05/21 14:40:25;;;;;;;3.95;1.92;;;;;;;;;;4992793;28;20062;-73
2022/05/21 14:42:51;;;;;;;4.05;1.30;;;;;;;;;;5010224;28;20460;-78
2022/05/21 14:45:25;;;;;;;5.10;1.63;;;;;;;;;;5011379;28;20029;-79
2022/05/21 14:47:53;;;;;;;3.58;1.50;;;;;;;;;;5006571;28;20098;-74
2022/05/21 14:53:18;;;;;;;3.15;1.20;;;;;;;;;;5015641;28;20088;-79
2022/05/21 14:55:44;;;;;;;4.53;1.33;;;;;;;;;;4998115;28;20030;-76
2022/05/21 14:58:10;;;;;;;4.05;1.33;;;;;;;;;;5014190;28;20024;-75
2022/05/21 15:00:36;;;;;;;4.63;1.40;;;;;;;;;;4998212;28;20065;-78
2022/05/21 15:03:02;;;;;;;5.70;1.77;;;;;;;;;;5012497;28;20064;-74
2022/05/21 15:05:29;;;;;;;3.90;1.50;;;;;;;;;;5008495;28;20541;-74
2022/05/21 15:07:58;;;;;;;3.38;1.15;;;;;;;;;;4995357;28;20029;-73
2022/05/21 15:10:24;;;;;;;3.53;1.20;;;;;;;;;;5012122;28;20021;-73
2022/05/21 15:12:50;;;;;;;4.32;1.40;;;;;;;;;;4998082;28;20014;-79
2022/05/21 15:15:17;;;;;;;5.53;1.38;;;;;;;;;;5012228;28;20055;-74
2022/05/21 15:17:43;;;;;;;5.78;1.40;;;;;;;;;;5009212;28;20030;-74
2022/05/21 15:20:11;;;;;;;4.60;1.45;;;;;;;;;;5009807;28;20026;-79
2022/05/21 15:22:37;;;;;;;3.47;1.15;;;;;;;;;;5014480;28;20033;-74
2022/05/21 15:25:04;;;;;;;4.18;1.30;;;;;;;;;;4999653;28;20492;-78
2022/05/21 15:27:31;;;;;;;5.00;1.20;;;;;;;;;;5017287;28;20026;-73
2022/05/21 15:29:56;;;;;;;3.85;1.20;;;;;;;;;;4998651;28;20025;-74
2022/05/21 15:32:22;;;;;;;3.78;1.23;;;;;;;;;;5011957;28;20104;-74